createdAt,value
2017-04-12T09:48:40.266Z,1010.5
2017-04-12T09:49:40.223Z,1010.51
2017-04-12T09:50:40.280Z,1010.49
2017-04-12T09:51:40.238Z,1010.51
2017-04-12T09:52:40.246Z,1010.52
2017-04-12T09:53:40.252Z,1010.47
2017-04-12T09:54:40.259Z,1010.49
2017-04-12T09:55:40.318Z,1010.41
2017-04-12T09:56:40.274Z,1010.43
2017-04-12T09:57:40.280Z,1010.45
2017-04-12T09:58:40.288Z,1010.39
2017-04-12T09:59:40.299Z,1010.36
2017-04-12T10:00:40.302Z,1010.35
2017-04-12T10:01:40.359Z,1010.35
2017-04-12T10:02:40.317Z,1010.34
2017-04-12T10:03:41.926Z,1010.32
2017-04-12T10:04:40.340Z,1010.36
2017-04-12T10:05:40.342Z,1010.34
2017-04-12T10:06:40.397Z,1010.33
2017-04-12T10:07:40.403Z,1010.34
2017-04-12T10:08:40.358Z,1010.37
2017-04-12T10:09:40.368Z,1010.36
2017-04-12T10:10:40.374Z,1010.36
2017-04-12T10:11:40.381Z,1010.36
2017-04-12T10:12:40.439Z,1010.37
2017-04-12T10:13:40.396Z,1010.35
2017-04-12T10:14:40.403Z,1010.27
2017-04-12T10:15:40.409Z,1010.29
2017-04-12T10:16:40.416Z,1010.31
2017-04-12T10:17:40.424Z,1010.31
2017-04-12T10:18:40.431Z,1010.3
2017-04-12T10:19:40.438Z,1010.26
2017-04-12T10:20:40.444Z,1010.19
2017-04-12T10:21:41.304Z,1010.21
2017-04-12T10:22:40.458Z,1010.21
2017-04-12T10:23:40.465Z,1010.18
2017-04-12T10:24:40.489Z,1010.14
2017-04-12T10:25:40.481Z,1010.15
2017-04-12T10:26:40.488Z,1010.2
2017-04-12T10:27:40.495Z,1010.13
2017-04-12T10:28:40.550Z,1010.13
2017-04-12T10:29:40.510Z,1010.15
2017-04-12T10:30:40.516Z,1010.11
2017-04-12T10:31:40.573Z,1010.05
2017-04-12T10:32:40.530Z,1010.03
2017-04-12T10:33:40.587Z,1010.01
2017-04-12T10:34:40.545Z,1010.04
2017-04-12T10:35:40.605Z,1009.99
2017-04-12T10:36:40.559Z,1009.97
2017-04-12T10:37:40.565Z,1009.98
2017-04-12T10:38:40.573Z,1009.93
2017-04-12T10:39:40.582Z,1009.89
2017-04-12T10:40:40.587Z,1009.93
2017-04-12T10:41:40.644Z,1009.97
2017-04-12T10:42:40.602Z,1009.93
2017-04-12T10:43:40.610Z,1009.92
2017-04-12T10:44:40.616Z,1009.99
2017-04-12T10:45:40.623Z,1009.92
2017-04-12T10:46:40.638Z,1009.95
2017-04-12T10:47:40.688Z,1009.92
2017-04-12T10:48:40.645Z,1009.96
2017-04-12T10:49:40.703Z,1009.87
2017-04-12T10:50:40.661Z,1009.9
2017-04-12T10:51:40.667Z,1009.9
2017-04-12T10:52:40.674Z,1009.88
2017-04-12T10:53:40.682Z,1009.93
2017-04-12T10:54:40.738Z,1009.89
2017-04-12T10:55:40.696Z,1009.86
2017-04-12T10:56:40.702Z,1009.82
2017-04-12T10:57:41.661Z,1009.75
2017-04-12T10:58:40.718Z,1009.8
2017-04-12T10:59:40.725Z,1009.79
2017-04-12T11:00:40.733Z,1009.81
2017-04-12T11:01:40.739Z,1009.88
2017-04-12T11:02:40.798Z,1009.76
2017-04-12T11:03:40.754Z,1009.75
2017-04-12T11:04:40.762Z,1009.78
2017-04-12T11:05:40.770Z,1009.7
2017-04-12T11:06:40.825Z,1009.75
2017-04-12T11:07:40.783Z,1009.68
2017-04-12T11:08:40.789Z,1009.71
2017-04-12T11:09:40.847Z,1009.65
2017-04-12T11:10:40.803Z,1009.65
2017-04-12T11:11:40.810Z,1009.56
2017-04-12T11:12:40.817Z,1009.58
2017-04-12T11:13:40.876Z,1009.55
2017-04-12T11:14:40.832Z,1009.56
2017-04-12T11:15:40.838Z,1009.55
2017-04-12T11:16:40.846Z,1009.55
2017-04-12T11:17:40.902Z,1009.61
2017-04-12T11:18:40.861Z,1009.6
2017-04-12T11:19:40.915Z,1009.54
2017-04-12T11:20:40.924Z,1009.55
2017-04-12T11:21:40.930Z,1009.54
2017-04-12T11:22:40.888Z,1009.53
2017-04-12T11:23:40.895Z,1009.5
2017-04-12T11:24:40.902Z,1009.46
2017-04-12T11:25:40.911Z,1009.46
2017-04-12T11:26:40.917Z,1009.44
2017-04-12T11:27:40.924Z,1009.41
2017-04-12T11:28:40.931Z,1009.38
2017-04-12T11:29:40.938Z,1009.38
2017-04-12T11:30:40.943Z,1009.38
2017-04-12T11:31:40.951Z,1009.42
2017-04-12T11:32:40.958Z,1009.32
2017-04-12T11:33:40.966Z,1009.37
2017-04-12T11:34:40.972Z,1009.4
2017-04-12T11:35:40.978Z,1009.37
2017-04-12T11:36:40.984Z,1009.37
2017-04-12T11:37:40.992Z,1009.36
2017-04-12T11:38:41.000Z,1009.35
2017-04-12T11:39:41.007Z,1009.26
2017-04-12T11:40:41.018Z,1009.29
2017-04-12T11:41:41.019Z,1009.25
2017-04-12T11:42:41.028Z,1009.32
2017-04-12T11:43:41.038Z,1009.29
2017-04-12T11:44:41.040Z,1009.24
2017-04-12T11:45:41.049Z,1009.2
2017-04-12T11:46:41.054Z,1009.24
2017-04-12T11:47:41.061Z,1009.18
2017-04-12T11:48:41.119Z,1009.25
2017-04-12T11:49:41.076Z,1009.2
2017-04-12T11:50:41.084Z,1009.18
2017-04-12T11:51:41.090Z,1009.26
2017-04-12T11:52:41.097Z,1009.23
2017-04-12T11:53:41.403Z,1009.21
2017-04-12T11:54:41.110Z,1009.21
2017-04-12T11:55:41.118Z,1009.16
2017-04-12T11:56:41.126Z,1009.12
2017-04-12T11:57:41.133Z,1009.09
2017-04-12T11:58:41.139Z,1009.2
2017-04-12T11:59:41.146Z,1009.13
2017-04-12T12:00:41.153Z,1009.06
2017-04-12T12:01:41.160Z,1009.07
2017-04-12T12:02:41.167Z,1009.05
2017-04-12T12:03:41.175Z,1009.06
2017-04-12T12:04:41.182Z,1009.06
2017-04-12T12:05:41.187Z,1009.02
2017-04-12T12:06:41.195Z,1009.06
2017-04-12T12:07:41.202Z,1009.08
2017-04-12T12:08:41.209Z,1009.03
2017-04-12T12:09:41.265Z,1009.03
2017-04-12T12:10:41.223Z,1009.07
2017-04-12T12:11:41.279Z,1009.08
2017-04-12T12:12:41.238Z,1009.07
2017-04-12T12:13:41.244Z,1009.11
2017-04-12T12:14:41.250Z,1009.13
2017-04-12T12:15:41.308Z,1009.16
2017-04-12T12:16:41.266Z,1009.12
2017-04-12T12:17:41.273Z,1009.16
2017-04-12T12:18:41.281Z,1009.18
2017-04-12T12:19:41.286Z,1009.11
2017-04-12T12:20:41.294Z,1009.13
2017-04-12T12:21:41.305Z,1009.16
2017-04-12T12:22:41.309Z,1009.18
2017-04-12T12:23:41.315Z,1009.25
2017-04-12T12:24:41.321Z,1009.13
2017-04-12T12:25:43.130Z,1009.12
2017-04-12T12:26:41.337Z,1009.16
2017-04-12T12:27:41.345Z,1009.15
2017-04-12T12:28:41.350Z,1009.1
2017-04-12T12:29:41.358Z,1009.17
2017-04-12T12:30:41.413Z,1009.12
2017-04-12T12:31:41.376Z,1009.06
2017-04-12T12:32:41.381Z,1009.07
2017-04-12T12:33:41.387Z,1009.06
2017-04-12T12:34:41.394Z,1009.08
2017-04-12T12:35:41.403Z,1009.07
2017-04-12T12:36:41.455Z,1009.06
2017-04-12T12:37:41.415Z,1009
2017-04-12T12:38:41.422Z,1009.06
2017-04-12T12:39:41.430Z,1009.02
2017-04-12T12:40:41.437Z,1009.11
2017-04-12T12:41:41.443Z,1009.11
2017-04-12T12:42:41.450Z,1008.99
2017-04-12T12:43:41.458Z,1009.07
2017-04-12T12:44:41.465Z,1009.04
2017-04-12T12:45:41.472Z,1008.99
2017-04-12T12:46:41.478Z,1008.99
2017-04-12T12:47:41.487Z,1009.04
2017-04-12T12:48:41.495Z,1009.05
2017-04-12T12:49:41.501Z,1009.01
2017-04-12T12:50:41.508Z,1009.06
2017-04-12T12:51:41.516Z,1009.12
2017-04-12T12:52:41.521Z,1009.01
2017-04-12T12:53:41.530Z,1008.94
2017-04-12T12:54:41.538Z,1008.91
2017-04-12T12:55:41.545Z,1008.99
2017-04-12T12:56:41.551Z,1009
2017-04-12T12:57:41.616Z,1009.03
2017-04-12T12:58:41.567Z,1009.03
2017-04-12T12:59:43.174Z,1008.99
2017-04-12T13:00:41.631Z,1008.99
2017-04-12T13:01:41.588Z,1009.07
2017-04-12T13:02:41.597Z,1009.04
2017-04-12T13:03:41.599Z,1009.04
2017-04-12T13:04:41.609Z,1009
2017-04-12T13:05:41.614Z,1009.02
2017-04-12T13:06:41.672Z,1009.07
2017-04-12T13:07:41.629Z,1009.04
2017-04-12T13:08:41.637Z,1008.97
2017-04-12T13:09:41.694Z,1008.97
2017-04-12T13:10:41.652Z,1009.01
2017-04-12T13:11:41.706Z,1008.99
2017-04-12T13:12:41.665Z,1009
2017-04-12T13:13:41.677Z,1008.98
2017-04-12T13:14:41.679Z,1008.98
2017-04-12T13:15:41.739Z,1008.98
2017-04-12T13:16:41.744Z,1008.95
2017-04-12T13:17:41.701Z,1008.97
2017-04-12T13:18:41.708Z,1008.93
2017-04-12T13:19:41.712Z,1008.93
2017-04-12T13:20:41.721Z,1008.96
2017-04-12T13:21:41.727Z,1008.9
2017-04-12T13:22:41.736Z,1008.87
2017-04-12T13:23:41.792Z,1008.86
2017-04-12T13:24:41.750Z,1008.86
2017-04-12T13:25:41.755Z,1008.93
2017-04-12T13:26:41.812Z,1008.86
2017-04-12T13:27:41.770Z,1008.84
2017-04-12T13:28:41.777Z,1008.84
2017-04-12T13:29:41.833Z,1008.85
2017-04-12T13:30:41.791Z,1008.87
2017-04-12T13:31:41.797Z,1008.85
2017-04-12T13:32:41.805Z,1008.8
2017-04-12T13:33:41.860Z,1008.74
2017-04-12T13:34:41.817Z,1008.73
2017-04-12T13:35:41.826Z,1008.77
2017-04-12T13:36:41.832Z,1008.8
2017-04-12T13:37:41.839Z,1008.66
2017-04-12T13:38:41.847Z,1008.68
2017-04-12T13:39:41.853Z,1008.67
2017-04-12T13:40:41.860Z,1008.66
2017-04-12T13:41:41.867Z,1008.61
2017-04-12T13:42:41.873Z,1008.55
2017-04-12T13:43:41.877Z,1008.48
2017-04-12T13:44:41.886Z,1008.45
2017-04-12T13:45:41.892Z,1008.48
2017-04-12T13:46:41.901Z,1008.45
2017-04-12T13:47:41.906Z,1008.42
2017-04-12T13:48:41.913Z,1008.34
2017-04-12T13:49:41.921Z,1008.34
2017-04-12T13:50:41.979Z,1008.3
2017-04-12T13:51:41.934Z,1008.32
2017-04-12T13:52:42.039Z,1008.27
2017-04-12T13:53:41.948Z,1008.21
2017-04-12T13:54:41.956Z,1008.25
2017-04-12T13:55:41.962Z,1008.24
2017-04-12T13:56:41.970Z,1008.16
2017-04-12T13:57:42.024Z,1008.17
2017-04-12T13:58:42.032Z,1008.12
2017-04-12T13:59:41.989Z,1008.1
2017-04-12T14:00:41.996Z,1008.13
2017-04-12T14:01:42.003Z,1008.09
2017-04-12T14:02:42.012Z,1008.06
2017-04-12T14:03:42.019Z,1008.16
2017-04-12T14:04:42.075Z,1008.07
2017-04-12T14:05:42.033Z,1008.04
2017-04-12T14:06:42.038Z,1008.06
2017-04-12T14:07:42.047Z,1008.03
2017-04-12T14:08:42.055Z,1008.01
2017-04-12T14:09:42.061Z,1007.98
2017-04-12T14:10:42.117Z,1007.93
2017-04-12T14:11:42.077Z,1007.94
2017-04-12T14:12:42.083Z,1007.93
2017-04-12T14:13:42.088Z,1007.86
2017-04-12T14:14:42.145Z,1007.89
2017-04-12T14:15:42.104Z,1007.88
2017-04-12T14:16:42.109Z,1007.88
2017-04-12T14:17:42.117Z,1007.88
2017-04-12T14:18:42.124Z,1007.9
2017-04-12T14:19:42.181Z,1007.87
2017-04-12T14:20:42.140Z,1007.76
2017-04-12T14:21:42.147Z,1007.78
2017-04-12T14:22:42.152Z,1007.78
2017-04-12T14:23:42.161Z,1007.81
2017-04-12T14:24:42.165Z,1007.81
2017-04-12T14:25:42.175Z,1007.79
2017-04-12T14:26:42.181Z,1007.79
2017-04-12T14:27:42.250Z,1007.79
2017-04-12T14:28:42.190Z,1007.74
2017-04-12T14:29:42.201Z,1007.76
2017-04-12T14:30:42.214Z,1007.67
2017-04-12T14:31:42.263Z,1007.74
2017-04-12T14:32:42.220Z,1007.62
2017-04-12T14:33:42.229Z,1007.62
2017-04-12T14:34:42.240Z,1007.63
2017-04-12T14:35:42.243Z,1007.63
2017-04-12T14:36:42.251Z,1007.72
2017-04-12T14:37:42.259Z,1007.61
2017-04-12T14:38:42.266Z,1007.56
2017-04-12T14:39:42.272Z,1007.51
2017-04-12T14:40:42.279Z,1007.59
2017-04-12T14:41:42.286Z,1007.58
2017-04-12T14:42:42.293Z,1007.6
2017-04-12T14:43:42.300Z,1007.59
2017-04-12T14:44:42.308Z,1007.57
2017-04-12T14:45:42.314Z,1007.57
2017-04-12T14:46:42.319Z,1007.54
2017-04-12T14:47:42.329Z,1007.59
2017-04-12T14:48:42.336Z,1007.53
2017-04-12T14:49:42.342Z,1007.62
2017-04-12T14:50:42.349Z,1007.59
2017-04-12T14:51:42.354Z,1007.59
2017-04-12T14:52:42.367Z,1007.64
2017-04-12T14:53:42.370Z,1007.63
2017-04-12T14:54:42.377Z,1007.63
2017-04-12T14:55:42.383Z,1007.6
2017-04-12T14:56:42.392Z,1007.66
2017-04-12T14:57:42.398Z,1007.56
2017-04-12T14:58:42.405Z,1007.54
2017-04-12T14:59:42.513Z,1007.48
2017-04-12T15:00:42.431Z,1007.44
2017-04-12T15:01:42.426Z,1007.4
2017-04-12T15:02:42.483Z,1007.4
2017-04-12T15:03:42.441Z,1007.4
2017-04-12T15:04:42.447Z,1007.35
2017-04-12T15:05:42.454Z,1007.35
2017-04-12T15:06:42.463Z,1007.32
2017-04-12T15:07:42.467Z,1007.26
2017-04-12T15:08:42.476Z,1007.3
2017-04-12T15:09:42.482Z,1007.23
2017-04-12T15:10:42.490Z,1007.16
2017-04-12T15:11:42.496Z,1007.25
2017-04-12T15:12:42.503Z,1007.25
2017-04-12T15:13:42.511Z,1007.22
2017-04-12T15:14:42.567Z,1007.31
2017-04-12T15:15:42.524Z,1007.33
2017-04-12T15:16:42.530Z,1007.3
2017-04-12T15:17:42.539Z,1007.29
2017-04-12T15:18:42.546Z,1007.31
2017-04-12T15:19:42.550Z,1007.29
2017-04-12T15:20:42.559Z,1007.34
2017-04-12T15:21:42.567Z,1007.34
2017-04-12T15:22:42.622Z,1007.28
2017-04-12T15:23:42.581Z,1007.33
2017-04-12T15:24:42.587Z,1007.35
2017-04-12T15:25:42.594Z,1007.37
2017-04-12T15:26:42.604Z,1007.36
2017-04-12T15:27:42.609Z,1007.34
2017-04-12T15:28:42.615Z,1007.34
2017-04-12T15:29:42.670Z,1007.33
2017-04-12T15:30:42.631Z,1007.32
2017-04-12T15:31:42.637Z,1007.3
2017-04-12T15:32:42.694Z,1007.34
2017-04-12T15:33:42.652Z,1007.38
2017-04-12T15:34:42.660Z,1007.36
2017-04-12T15:35:42.715Z,1007.35
2017-04-12T15:36:42.677Z,1007.36
2017-04-12T15:37:42.729Z,1007.37
2017-04-12T15:38:42.734Z,1007.32
2017-04-12T15:39:42.742Z,1007.34
2017-04-12T15:40:42.700Z,1007.31
2017-04-12T15:41:42.707Z,1007.37
2017-04-12T15:42:42.713Z,1007.35
2017-04-12T15:43:42.771Z,1007.32
2017-04-12T15:44:42.727Z,1007.33
2017-04-12T15:45:42.734Z,1007.35
2017-04-12T15:46:42.793Z,1007.32
2017-04-12T15:47:42.799Z,1007.32
2017-04-12T15:48:42.758Z,1007.23
2017-04-12T15:49:42.765Z,1007.34
2017-04-12T15:50:42.820Z,1007.31
2017-04-12T15:51:42.778Z,1007.27
2017-04-12T15:52:42.788Z,1007.29
2017-04-12T15:53:42.842Z,1007.29
2017-04-12T15:54:42.849Z,1007.32
2017-04-12T15:55:42.808Z,1007.28
2017-04-12T15:56:42.816Z,1007.34
2017-04-12T15:57:42.822Z,1007.25
2017-04-12T15:58:42.831Z,1007.34
2017-04-12T15:59:42.837Z,1007.38
2017-04-12T16:00:42.844Z,1007.3
2017-04-12T16:01:42.902Z,1007.33
2017-04-12T16:02:42.908Z,1007.36
2017-04-12T16:03:42.866Z,1007.29
2017-04-12T16:04:42.874Z,1007.33
2017-04-12T16:05:42.881Z,1007.38
2017-04-12T16:06:42.937Z,1007.37
2017-04-12T16:07:42.896Z,1007.3
2017-04-12T16:08:42.902Z,1007.31
2017-04-12T16:09:42.912Z,1007.42
2017-04-12T16:10:42.966Z,1007.34
2017-04-12T16:11:42.926Z,1007.37
2017-04-12T16:12:42.936Z,1007.41
2017-04-12T16:13:42.938Z,1007.4
2017-04-12T16:14:42.946Z,1007.39
2017-04-12T16:15:42.955Z,1007.44
2017-04-12T16:16:43.012Z,1007.38
2017-04-12T16:17:42.969Z,1007.32
2017-04-12T16:18:42.978Z,1007.33
2017-04-12T16:19:42.985Z,1007.36
2017-04-12T16:20:42.992Z,1007.36
2017-04-12T16:21:42.999Z,1007.33
2017-04-12T16:22:43.010Z,1007.43
2017-04-12T16:23:43.016Z,1007.34
2017-04-12T16:24:43.018Z,1007.39
2017-04-12T16:25:43.027Z,1007.34
2017-04-12T16:26:43.085Z,1007.44
2017-04-12T16:27:43.044Z,1007.4
2017-04-12T16:28:43.050Z,1007.4
2017-04-12T16:29:43.058Z,1007.35
2017-04-12T16:30:43.066Z,1007.41
2017-04-12T16:31:43.073Z,1007.36
2017-04-12T16:32:43.131Z,1007.43
2017-04-12T16:33:43.137Z,1007.44
2017-04-12T16:34:43.095Z,1007.45
2017-04-12T16:35:43.100Z,1007.4
2017-04-12T16:36:43.108Z,1007.44
2017-04-12T16:37:43.164Z,1007.41
2017-04-12T16:38:43.873Z,1007.4
2017-04-12T16:39:43.128Z,1007.51
2017-04-12T16:40:43.135Z,1007.46
2017-04-12T16:41:43.144Z,1007.51
2017-04-12T16:42:43.149Z,1007.46
2017-04-12T16:43:43.154Z,1007.5
2017-04-12T16:44:43.165Z,1007.5
2017-04-12T16:45:43.172Z,1007.52
2017-04-12T16:46:43.229Z,1007.56
2017-04-12T16:47:43.185Z,1007.51
2017-04-12T16:48:43.198Z,1007.6
2017-04-12T16:49:43.201Z,1007.59
2017-04-12T16:50:43.208Z,1007.59
2017-04-12T16:51:43.265Z,1007.58
2017-04-12T16:52:43.229Z,1007.55
2017-04-12T16:53:43.233Z,1007.61
2017-04-12T16:54:43.339Z,1007.58
2017-04-12T16:55:43.296Z,1007.67
2017-04-12T16:56:43.253Z,1007.72
2017-04-12T16:57:43.259Z,1007.72
2017-04-12T16:58:43.268Z,1007.78
2017-04-12T16:59:43.276Z,1007.75
2017-04-12T17:00:43.334Z,1007.73
2017-04-12T17:01:43.489Z,1007.76
2017-04-12T17:02:43.297Z,1007.76
2017-04-12T17:03:43.354Z,1007.83
2017-04-12T17:04:43.311Z,1007.76
2017-04-12T17:05:43.415Z,1007.78
2017-04-12T17:06:43.378Z,1007.76
2017-04-12T17:07:43.335Z,1007.77
2017-04-12T17:08:43.341Z,1007.77
2017-04-12T17:09:43.349Z,1007.79
2017-04-12T17:10:43.357Z,1007.68
2017-04-12T17:11:43.366Z,1007.76
2017-04-12T17:12:43.371Z,1007.67
2017-04-12T17:13:43.383Z,1007.66
2017-04-12T17:14:43.387Z,1007.64
2017-04-12T17:15:43.394Z,1007.63
2017-04-12T17:16:43.403Z,1007.66
2017-04-12T17:17:43.410Z,1007.72
2017-04-12T17:18:43.423Z,1007.76
2017-04-12T17:19:43.474Z,1007.65
2017-04-12T17:20:43.436Z,1007.69
2017-04-12T17:21:43.448Z,1007.62
2017-04-12T17:22:43.449Z,1007.59
2017-04-12T17:23:43.457Z,1007.58
2017-04-12T17:24:43.464Z,1007.49
2017-04-12T17:25:43.525Z,1007.51
2017-04-12T17:26:43.478Z,1007.48
2017-04-12T17:27:43.539Z,1007.49
2017-04-12T17:28:43.494Z,1007.46
2017-04-12T17:29:43.557Z,1007.55
2017-04-12T17:30:43.567Z,1007.55
2017-04-12T17:31:43.516Z,1007.6
2017-04-12T17:32:43.525Z,1007.61
2017-04-12T17:33:43.541Z,1007.6
2017-04-12T17:34:43.540Z,1007.62
2017-04-12T17:35:43.549Z,1007.54
2017-04-12T17:36:43.556Z,1007.53
2017-04-12T17:37:43.563Z,1007.54
2017-04-12T17:38:43.572Z,1007.58
2017-04-12T17:39:43.629Z,1007.6
2017-04-12T17:40:43.626Z,1007.57
2017-04-12T17:41:43.593Z,1007.6
2017-04-12T17:42:43.600Z,1007.64
2017-04-12T17:43:43.659Z,1007.6
2017-04-12T17:44:43.616Z,1007.65
2017-04-12T17:45:43.624Z,1007.6
2017-04-12T17:46:43.633Z,1007.59
2017-04-12T17:47:43.690Z,1007.59
2017-04-12T17:48:43.649Z,1007.63
2017-04-12T17:49:43.707Z,1007.57
2017-04-12T17:50:43.666Z,1007.46
2017-04-12T17:51:43.722Z,1007.5
2017-04-12T17:52:43.679Z,1007.64
2017-04-12T17:53:43.727Z,1007.5
2017-04-12T17:54:43.746Z,1007.57
2017-04-12T17:55:43.703Z,1007.56
2017-04-12T17:56:43.761Z,1007.51
2017-04-12T17:57:43.720Z,1007.49
2017-04-12T17:58:43.727Z,1007.53
2017-04-12T17:59:43.733Z,1007.53
2017-04-12T18:00:43.742Z,1007.6
2017-04-12T18:01:45.402Z,1007.52
2017-04-12T18:02:43.757Z,1007.54
2017-04-12T18:03:43.766Z,1007.57
2017-04-12T18:04:43.775Z,1007.57
2017-04-12T18:05:44.082Z,1007.54
2017-04-12T18:06:43.790Z,1007.57
2017-04-12T18:07:43.796Z,1007.54
2017-04-12T18:08:43.854Z,1007.58
2017-04-12T18:09:43.814Z,1007.62
2017-04-12T18:10:43.869Z,1007.55
2017-04-12T18:11:43.861Z,1007.54
2017-04-12T18:12:43.838Z,1007.59
2017-04-12T18:13:43.895Z,1007.59
2017-04-12T18:14:43.903Z,1007.61
2017-04-12T18:15:43.861Z,1007.59
2017-04-12T18:16:43.918Z,1007.67
2017-04-12T18:17:43.876Z,1007.62
2017-04-12T18:18:43.884Z,1007.64
2017-04-12T18:19:43.893Z,1007.7
2017-04-12T18:20:43.901Z,1007.71
2017-04-12T18:21:43.909Z,1007.71
2017-04-12T18:22:43.919Z,1007.8
2017-04-12T18:23:43.924Z,1007.77
2017-04-12T18:24:43.932Z,1007.72
2017-04-12T18:25:43.939Z,1007.8
2017-04-12T18:26:43.999Z,1007.73
2017-04-12T18:27:43.957Z,1007.79
2017-04-12T18:28:44.014Z,1007.75
2017-04-12T18:29:44.022Z,1007.78
2017-04-12T18:30:44.029Z,1007.75
2017-04-12T18:31:44.024Z,1007.81
2017-04-12T18:32:43.996Z,1007.75
2017-04-12T18:33:44.004Z,1007.81
2017-04-12T18:34:44.061Z,1007.83
2017-04-12T18:35:44.021Z,1007.81
2017-04-12T18:36:44.027Z,1007.74
2017-04-12T18:37:44.036Z,1007.79
2017-04-12T18:38:44.044Z,1007.79
2017-04-12T18:39:44.101Z,1007.83
2017-04-12T18:40:44.060Z,1007.81
2017-04-12T18:41:44.118Z,1007.83
2017-04-12T18:42:44.075Z,1007.82
2017-04-12T18:43:44.084Z,1007.89
2017-04-12T18:44:44.092Z,1007.85
2017-04-12T18:45:44.100Z,1007.87
2017-04-12T18:46:44.109Z,1007.83
2017-04-12T18:47:44.114Z,1007.9
2017-04-12T18:48:44.173Z,1007.86
2017-04-12T18:49:44.132Z,1007.97
2017-04-12T18:50:44.139Z,1007.92
2017-04-12T18:51:44.148Z,1007.95
2017-04-12T18:52:44.155Z,1007.86
2017-04-12T18:53:44.164Z,1007.88
2017-04-12T18:54:44.170Z,1007.93
2017-04-12T18:55:44.178Z,1007.93
2017-04-12T18:56:44.211Z,1007.95
2017-04-12T18:57:44.245Z,1008.05
2017-04-12T18:58:44.204Z,1007.97
2017-04-12T18:59:44.262Z,1008
2017-04-12T19:00:44.220Z,1008
2017-04-12T19:01:44.277Z,1007.99
2017-04-12T19:02:44.236Z,1008.02
2017-04-12T19:03:44.245Z,1008.05
2017-04-12T19:04:45.154Z,1008.02
2017-04-12T19:05:44.311Z,1008.15
2017-04-12T19:06:44.268Z,1008.04
2017-04-12T19:07:44.276Z,1007.97
2017-04-12T19:08:44.284Z,1007.96
2017-04-12T19:09:44.290Z,1007.97
2017-04-12T19:10:44.299Z,1008.01
2017-04-12T19:11:44.309Z,1008.02
2017-04-12T19:12:44.314Z,1007.99
2017-04-12T19:13:44.322Z,1008
2017-04-12T19:14:44.382Z,1008
2017-04-12T19:15:44.389Z,1008
2017-04-12T19:16:44.398Z,1008
2017-04-12T19:17:44.354Z,1007.99
2017-04-12T19:18:44.362Z,1008
2017-04-12T19:19:44.421Z,1008.01
2017-04-12T19:20:44.378Z,1008.04
2017-04-12T19:21:44.438Z,1008.07
2017-04-12T19:22:44.449Z,1008.01
2017-04-12T19:23:44.453Z,1008
2017-04-12T19:24:44.412Z,1008.04
2017-04-12T19:25:46.271Z,1007.96
2017-04-12T19:26:44.427Z,1007.97
2017-04-12T19:27:44.433Z,1007.92
2017-04-12T19:28:44.493Z,1007.93
2017-04-12T19:29:44.449Z,1007.95
2017-04-12T19:30:44.509Z,1007.93
2017-04-12T19:31:44.466Z,1007.97
2017-04-12T19:32:44.524Z,1007.89
2017-04-12T19:33:44.480Z,1007.92
2017-04-12T19:34:44.487Z,1007.94
2017-04-12T19:35:44.795Z,1007.84
2017-04-12T19:36:44.498Z,1007.88
2017-04-12T19:37:44.504Z,1007.86
2017-04-12T19:38:44.510Z,1007.84
2017-04-12T19:39:44.515Z,1007.83
2017-04-12T19:40:44.522Z,1007.8
2017-04-12T19:41:44.579Z,1007.89
2017-04-12T19:42:44.535Z,1007.88
2017-04-12T19:43:46.643Z,1007.85
2017-04-12T19:44:44.549Z,1007.8
2017-04-12T19:45:44.555Z,1007.8
2017-04-12T19:46:44.561Z,1007.84
2017-04-12T19:47:44.569Z,1007.87
2017-04-12T19:48:44.576Z,1007.83
2017-04-12T19:49:44.582Z,1007.82
2017-04-12T19:50:44.589Z,1007.84
2017-04-12T19:51:44.598Z,1007.78
2017-04-12T19:52:44.600Z,1007.8
2017-04-12T19:53:44.611Z,1007.78
2017-04-12T19:54:44.613Z,1007.79
2017-04-12T19:55:44.620Z,1007.75
2017-04-12T19:56:44.678Z,1007.75
2017-04-12T19:57:44.633Z,1007.79
2017-04-12T19:58:44.639Z,1007.79
2017-04-12T19:59:44.650Z,1007.72
2017-04-12T20:00:44.650Z,1007.73
2017-04-12T20:01:44.656Z,1007.73
2017-04-12T20:02:44.712Z,1007.81
2017-04-12T20:03:44.669Z,1007.76
2017-04-12T20:04:44.675Z,1007.75
2017-04-12T20:05:44.681Z,1007.76
2017-04-12T20:06:44.689Z,1007.74
2017-04-12T20:07:44.694Z,1007.73
2017-04-12T20:08:44.700Z,1007.74
2017-04-12T20:09:44.708Z,1007.71
2017-04-12T20:10:44.715Z,1007.74
2017-04-12T20:11:44.770Z,1007.72
2017-04-12T20:12:44.726Z,1007.7
2017-04-12T20:13:44.733Z,1007.76
2017-04-12T20:14:44.739Z,1007.7
2017-04-12T20:15:44.745Z,1007.67
2017-04-12T20:16:44.753Z,1007.67
2017-04-12T20:17:44.810Z,1007.67
2017-04-12T20:18:44.765Z,1007.7
2017-04-12T20:19:44.772Z,1007.77
2017-04-12T20:20:44.779Z,1007.74
2017-04-12T20:21:44.790Z,1007.7
2017-04-12T20:22:44.791Z,1007.68
2017-04-12T20:23:44.798Z,1007.69
2017-04-12T20:24:44.805Z,1007.71
2017-04-12T20:25:44.812Z,1007.73
2017-04-12T20:26:44.819Z,1007.69
2017-04-12T20:27:44.825Z,1007.68
2017-04-12T20:28:44.832Z,1007.72
2017-04-12T20:29:44.887Z,1007.69
2017-04-12T20:30:44.845Z,1007.73
2017-04-12T20:31:44.853Z,1007.72
2017-04-12T20:32:44.859Z,1007.73
2017-04-12T20:33:44.915Z,1007.7
2017-04-12T20:34:44.872Z,1007.68
2017-04-12T20:35:44.931Z,1007.7
2017-04-12T20:36:44.886Z,1007.66
2017-04-12T20:37:44.890Z,1007.65
2017-04-12T20:38:44.950Z,1007.67
2017-04-12T20:39:44.906Z,1007.69
2017-04-12T20:40:44.913Z,1007.62
2017-04-12T20:41:44.922Z,1007.71
2017-04-12T20:42:44.928Z,1007.64
2017-04-12T20:43:44.937Z,1007.67
2017-04-12T20:44:44.941Z,1007.67
2017-04-12T20:45:44.948Z,1007.68
2017-04-12T20:46:44.955Z,1007.66
2017-04-12T20:47:44.961Z,1007.72
2017-04-12T20:48:44.970Z,1007.71
2017-04-12T20:49:44.975Z,1007.69
2017-04-12T20:50:45.032Z,1007.7
2017-04-12T20:51:44.989Z,1007.69
2017-04-12T20:52:44.993Z,1007.73
2017-04-12T20:53:45.029Z,1007.72
2017-04-12T20:54:45.007Z,1007.71
2017-04-12T20:55:45.013Z,1007.66
2017-04-12T20:56:45.022Z,1007.63
2017-04-12T20:57:45.078Z,1007.73
2017-04-12T20:58:45.033Z,1007.68
2017-04-12T20:59:45.040Z,1007.75
2017-04-12T21:00:45.047Z,1007.73
2017-04-12T21:01:45.051Z,1007.63
2017-04-12T21:02:45.054Z,1007.59
2017-04-12T21:03:45.059Z,1007.62
2017-04-12T21:04:45.065Z,1007.62
2017-04-12T21:05:45.067Z,1007.58
2017-04-12T21:06:45.071Z,1007.55
2017-04-12T21:07:45.074Z,1007.56
2017-04-12T21:08:45.075Z,1007.55
2017-04-12T21:09:45.077Z,1007.56
2017-04-12T21:10:45.381Z,1007.53
2017-04-12T21:11:45.082Z,1007.57
2017-04-12T21:12:45.084Z,1007.54
2017-04-12T21:13:45.987Z,1007.59
2017-04-12T21:14:45.087Z,1007.6
2017-04-12T21:15:45.089Z,1007.61
2017-04-12T21:16:45.093Z,1007.55
2017-04-12T21:17:45.092Z,1007.55
2017-04-12T21:18:45.093Z,1007.59
2017-04-12T21:19:45.095Z,1007.58
2017-04-12T21:20:45.095Z,1007.59
2017-04-12T21:21:45.096Z,1007.59
2017-04-12T21:22:45.148Z,1007.66
2017-04-12T21:23:45.098Z,1007.65
2017-04-12T21:24:45.097Z,1007.62
2017-04-12T21:25:45.102Z,1007.54
2017-04-12T21:26:45.100Z,1007.64
2017-04-12T21:27:45.103Z,1007.62
2017-04-12T21:28:45.102Z,1007.59
2017-04-12T21:29:45.106Z,1007.56
2017-04-12T21:30:45.108Z,1007.58
2017-04-12T21:31:45.108Z,1007.56
2017-04-12T21:32:45.107Z,1007.6
2017-04-12T21:33:45.109Z,1007.55
2017-04-12T21:34:45.111Z,1007.53
2017-04-12T21:35:45.110Z,1007.56
2017-04-12T21:36:45.109Z,1007.55
2017-04-12T21:37:45.112Z,1007.51
2017-04-12T21:38:45.112Z,1007.51
2017-04-12T21:39:45.114Z,1007.5
2017-04-12T21:40:45.116Z,1007.52
2017-04-12T21:41:45.117Z,1007.5
2017-04-12T21:42:45.120Z,1007.5
2017-04-12T21:43:45.122Z,1007.5
2017-04-12T21:44:45.124Z,1007.47
2017-04-12T21:45:45.125Z,1007.46
2017-04-12T21:46:45.124Z,1007.52
2017-04-12T21:47:45.125Z,1007.5
2017-04-12T21:48:45.128Z,1007.51
2017-04-12T21:49:45.130Z,1007.49
2017-04-12T21:50:45.128Z,1007.44
2017-04-12T21:51:45.132Z,1007.42
2017-04-12T21:52:45.184Z,1007.42
2017-04-12T21:53:45.134Z,1007.44
2017-04-12T21:54:45.135Z,1007.46
2017-04-12T21:55:45.137Z,1007.41
2017-04-12T21:56:45.138Z,1007.4
2017-04-12T21:57:45.139Z,1007.42